| time (UTC) | temp F | wind direction | speed MPH | gust MPH | rain 1hr in | rain 24hr in | rain mn in | humidity % | barometer mb |
| 20260906205549 | 86 | 68 | 6.0 | 8.0 | 0.00 | 0.00 | 0.00 | 54 | 1011.6 |
| 20260906205045 | 87 | 110 | 7.0 | 7.0 | 0.00 | 0.00 | 0.00 | 55 | 1011.7 |
| 20260906204544 | 86 | 143 | 9.0 | 10.0 | 0.00 | 0.00 | 0.00 | 56 | 1011.7 |
| 20260906204039 | 86 | 114 | 10.0 | 13.0 | 0.00 | 0.00 | 0.00 | 55 | 1011.9 |
| 20260906203538 | 85 | 115 | 8.0 | 13.0 | 0.00 | 0.00 | 0.00 | 57 | 1011.9 |
| 20260906203033 | 86 | 154 | 6.0 | 11.0 | 0.00 | 0.00 | 0.00 | 55 | 1012.1 |
| 20260906202530 | 86 | 154 | 8.0 | 11.0 | 0.00 | 0.00 | 0.00 | 55 | 1012.2 |
| 20260906202025 | 85 | 185 | 7.0 | 12.0 | 0.00 | 0.00 | 0.00 | 56 | 1012.1 |
| 20260906201525 | 86 | 180 | 9.0 | 11.0 | 0.00 | 0.00 | 0.00 | 56 | 1012.1 |
| 20260906201024 | 85 | 149 | 10.0 | 16.0 | 0.00 | 0.00 | 0.00 | 57 | 1012.4 |
| 20260906200520 | 85 | 166 | 3.0 | 15.0 | 0.00 | 0.00 | 0.00 | 57 | 1012.2 |
| 20260906200016 | 86 | 186 | 8.0 | 11.0 | 0.00 | 0.00 | 0.00 | 56 | 1012.2 |
| 20260906195511 | 84 | 146 | 7.0 | 13.0 | 0.00 | 0.00 | 0.00 | 59 | 1012.5 |
| 20260906195008 | 84 | 135 | 8.0 | 13.0 | 0.00 | 0.00 | 0.00 | 59 | 1012.5 |
| 20260906194503 | 84 | 197 | 6.0 | 13.0 | 0.00 | 0.00 | 0.00 | 58 | 1012.4 |
| 20260906193959 | 84 | 124 | 8.0 | 11.0 | 0.00 | 0.00 | 0.00 | 59 | 1012.6 |
| 20260906193458 | 84 | 156 | 9.0 | 12.0 | 0.00 | 0.00 | 0.00 | 60 | 1012.7 |
| 20260906192954 | 83 | 207 | 6.0 | 13.0 | 0.00 | 0.00 | 0.00 | 59 | 1012.8 |
| 20260906192449 | 84 | 167 | 7.0 | 14.0 | 0.00 | 0.00 | 0.00 | 56 | 1012.8 |
| 20260906191948 | 84 | 163 | 7.0 | 13.0 | 0.00 | 0.00 | 0.00 | 57 | 1013.1 |
| 20260906191443 | 84 | 185 | 7.0 | 11.0 | 0.00 | 0.00 | 0.00 | 57 | 1012.9 |
| 20260906190942 | 84 | 161 | 5.0 | 11.0 | 0.00 | 0.00 | 0.00 | 57 | 1013.0 |
| 20260906190441 | 84 | 198 | 7.0 | 11.0 | 0.00 | 0.00 | 0.00 | 57 | 1012.9 |
| 20260906185936 | 83 | 154 | 5.0 | 6.0 | 0.00 | 0.00 | 0.00 | 58 | 1013.3 |
| 20260906185436 | 81 | 145 | 9.0 | 13.0 | 0.00 | 0.00 | 0.00 | 64 | 1013.1 |
| 20260906184935 | 83 | 146 | 5.0 | 11.0 | 0.00 | 0.00 | 0.00 | 61 | 1013.3 |
| 20260906184430 | 81 | 135 | 9.0 | 13.0 | 0.00 | 0.00 | 0.00 | 64 | 1013.4 |
| 20260906183925 | 83 | 147 | 7.0 | 10.0 | 0.00 | 0.00 | 0.00 | 61 | 1013.6 |
| 20260906183421 | 82 | 180 | 7.0 | 11.0 | 0.00 | 0.00 | 0.00 | 62 | 1013.5 |
| 20260906182916 | 82 | 211 | 9.0 | 11.0 | 0.00 | 0.00 | 0.00 | 62 | 1013.9 |
| 20260906182412 | 81 | 147 | 9.0 | 15.0 | 0.00 | 0.00 | 0.00 | 63 | 1014.0 |
| 20260906181907 | 80 | 166 | 11.0 | 14.0 | 0.00 | 0.00 | 0.00 | 64 | 1013.9 |
| 20260906181403 | 81 | 182 | 8.0 | 13.0 | 0.00 | 0.00 | 0.00 | 64 | 1014.0 |
| 20260906180859 | 81 | 163 | 10.0 | 15.0 | 0.00 | 0.00 | 0.00 | 64 | 1014.3 |
| 20260906180353 | 79 | 146 | 10.0 | 15.0 | 0.00 | 0.00 | 0.00 | 68 | 1014.3 |
| 20260906175851 | 80 | 170 | 5.0 | 16.0 | 0.00 | 0.00 | 0.00 | 65 | 1014.4 |
| 20260906175346 | 81 | 159 | 11.0 | 16.0 | 0.00 | 0.00 | 0.00 | 63 | 1014.6 |
| 20260906174845 | 80 | 151 | 14.0 | 15.0 | 0.00 | 0.00 | 0.00 | 64 | 1014.7 |
| 20260906174344 | 79 | 167 | 8.0 | 14.0 | 0.00 | 0.00 | 0.00 | 67 | 1014.5 |
| 20260906173839 | 79 | 191 | 11.0 | 15.0 | 0.00 | 0.00 | 0.00 | 65 | 1014.8 |
| 20260906173335 | 80 | 192 | 7.0 | 11.0 | 0.00 | 0.00 | 0.00 | 65 | 1014.8 |
| 20260906172834 | 80 | 147 | 6.0 | 11.0 | 0.00 | 0.00 | 0.00 | 66 | 1014.8 |
| 20260906172330 | 78 | 175 | 7.0 | 16.0 | 0.00 | 0.00 | 0.00 | 68 | 1014.8 |
| 20260906171825 | 79 | 174 | 10.0 | 14.0 | 0.00 | 0.00 | 0.00 | 67 | 1014.8 |
| 20260906171320 | 79 | 178 | 7.0 | 13.0 | 0.00 | 0.00 | 0.00 | 67 | 1014.7 |
| 20260906170816 | 78 | 169 | 11.0 | 14.0 | 0.00 | 0.00 | 0.00 | 67 | 1014.8 |
| 20260906170312 | 79 | 173 | 12.0 | 14.0 | 0.00 | 0.00 | 0.00 | 66 | 1015.0 |
| 20260906165808 | 79 | 160 | 11.0 | 13.0 | 0.00 | 0.00 | 0.00 | 66 | 1014.8 |
| 20260906165306 | 78 | 149 | 12.0 | 14.0 | 0.00 | 0.00 | 0.00 | 66 | 1015.0 |
| 20260906164801 | 78 | 159 | 8.0 | 13.0 | 0.00 | 0.00 | 0.00 | 68 | 1014.7 |
| 20260906164256 | 78 | 159 | 7.0 | 13.0 | 0.00 | 0.00 | 0.00 | 69 | 1014.8 |
| 20260906163752 | 77 | 149 | 7.0 | 11.0 | 0.00 | 0.00 | 0.00 | 68 | 1014.8 |
| 20260906163248 | 76 | 186 | 5.0 | 11.0 | 0.00 | 0.00 | 0.00 | 69 | 1015.0 |
| 20260906162745 | 77 | 153 | 7.0 | 10.0 | 0.00 | 0.00 | 0.00 | 70 | 1015.3 |
| 20260906162240 | 76 | 153 | 8.0 | 13.0 | 0.00 | 0.00 | 0.00 | 70 | 1015.2 |
| 20260906161740 | 76 | 148 | 7.0 | 10.0 | 0.00 | 0.00 | 0.00 | 70 | 1015.0 |
| 20260906161239 | 76 | 196 | 7.0 | 11.0 | 0.00 | 0.00 | 0.00 | 69 | 1015.3 |
| 20260906160738 | 76 | 156 | 4.0 | 9.0 | 0.00 | 0.00 | 0.00 | 70 | 1015.4 |
| 20260906160238 | 75 | 162 | 7.0 | 9.0 | 0.00 | 0.00 | 0.00 | 71 | 1015.4 |
| 20260906155735 | 75 | 180 | 9.0 | 9.0 | 0.00 | 0.00 | 0.00 | 69 | 1015.5 |
| 20260906155230 | 75 | 128 | 3.0 | 5.0 | 0.00 | 0.00 | 0.00 | 71 | 1015.3 |
| 20260906154726 | 74 | 165 | 5.0 | 6.0 | 0.00 | 0.00 | 0.00 | 72 | 1015.4 |
| 20260906154221 | 73 | 180 | 5.0 | 9.0 | 0.00 | 0.00 | 0.00 | 75 | 1015.4 |
| 20260906153719 | 72 | 182 | 7.0 | 9.0 | 0.00 | 0.00 | 0.00 | 75 | 1015.2 |
| 20260906153214 | 72 | 148 | 7.0 | 9.0 | 0.00 | 0.00 | 0.00 | 76 | 1015.3 |
| 20260906152709 | 69 | 190 | 4.0 | 9.0 | 0.00 | 0.00 | 0.00 | 79 | 1015.5 |
| 20260906152203 | 69 | 198 | 3.0 | 6.0 | 0.00 | 0.00 | 0.00 | 79 | 1015.6 |
| 20260906151657 | 69 | 192 | 2.0 | 5.0 | 0.00 | 0.00 | 0.00 | 79 | 1015.3 |
| 20260906151153 | 69 | 189 | 4.0 | 6.0 | 0.00 | 0.00 | 0.00 | 78 | 1015.3 |
| 20260906150649 | 69 | 175 | 3.0 | 3.0 | 0.00 | 0.00 | 0.00 | 79 | 1015.5 |
| 20260906150144 | 69 | 197 | 0.0 | 4.0 | 0.00 | 0.00 | 0.00 | 77 | 1015.5 |
| 20260906145643 | 71 | 130 | 5.0 | 5.0 | 0.00 | 0.00 | 0.00 | 76 | 1015.5 |
| 20260906145137 | 70 | 245 | 0.0 | 4.0 | 0.00 | 0.00 | 0.00 | 76 | 1015.4 |
| 20260906144632 | 71 | 142 | 5.0 | 5.0 | 0.00 | 0.00 | 0.00 | 74 | 1015.5 |
| 20260906144127 | 71 | 123 | 2.0 | 4.0 | 0.00 | 0.00 | 0.00 | 76 | 1015.4 |
| 20260906143626 | 68 | 146 | 0.0 | 3.0 | 0.00 | 0.00 | 0.00 | 80 | 1015.7 |
| 20260906143124 | 68 | 166 | 0.0 | 3.0 | 0.00 | 0.00 | 0.00 | 82 | 1015.5 |
| 20260906142622 | 67 | 203 | 2.0 | 3.0 | 0.00 | 0.00 | 0.00 | 82 | 1015.7 |
| 20260906142118 | 68 | 139 | 1.0 | 3.0 | 0.00 | 0.00 | 0.00 | 81 | 1016.0 |
| 20260906141617 | 68 | 210 | 3.0 | 5.0 | 0.00 | 0.00 | 0.00 | 81 | 1015.9 |
| 20260906141113 | 67 | 243 | 1.0 | 3.0 | 0.00 | 0.00 | 0.00 | 82 | 1015.7 |
| 20260906140611 | 66 | 126 | 2.0 | 3.0 | 0.00 | 0.00 | 0.00 | 83 | 1016.0 |
| 20260906140106 | 67 | 141 | 2.0 | 3.0 | 0.00 | 0.00 | 0.00 | 84 | 1016.0 |
| 20260906135603 | 66 | 104 | 2.0 | 2.0 | 0.00 | 0.00 | 0.00 | 86 | 1015.7 |
| 20260906135059 | 66 | 86 | 4.0 | 4.0 | 0.00 | 0.00 | 0.00 | 86 | 1015.6 |
| 20260906134555 | 65 | 120 | 4.0 | 4.0 | 0.00 | 0.00 | 0.00 | 85 | 1015.7 |
| 20260906134055 | 65 | 98 | 3.0 | 4.0 | 0.00 | 0.00 | 0.00 | 86 | 1015.7 |
| 20260906133550 | 65 | 99 | 4.0 | 5.0 | 0.00 | 0.00 | 0.00 | 86 | 1015.6 |
| 20260906133046 | 65 | 52 | 3.0 | 3.0 | 0.00 | 0.00 | 0.00 | 86 | 1015.7 |
| 20260906132541 | 65 | 123 | 0.0 | 4.0 | 0.00 | 0.00 | 0.00 | 86 | 1015.7 |
| 20260906132036 | 66 | 116 | 4.0 | 7.0 | 0.00 | 0.00 | 0.00 | 85 | 1015.6 |
| 20260906131531 | 66 | 108 | 4.0 | 4.0 | 0.00 | 0.00 | 0.00 | 84 | 1015.9 |
| 20260906131027 | 67 | 108 | 2.0 | 2.0 | 0.00 | 0.00 | 0.00 | 82 | 1015.7 |
| 20260906130526 | 66 | 75 | 1.0 | 3.0 | 0.00 | 0.00 | 0.00 | 84 | 1015.9 |
| 20260906130021 | 65 | 126 | 3.0 | 4.0 | 0.00 | 0.00 | 0.00 | 87 | 1016.0 |
| 20260906125519 | 64 | 131 | 5.0 | 6.0 | 0.00 | 0.00 | 0.00 | 87 | 1015.7 |
| 20260906125013 | 64 | 113 | 3.0 | 4.0 | 0.00 | 0.00 | 0.00 | 89 | 1015.6 |
| 20260906124509 | 63 | 94 | 5.0 | 6.0 | 0.00 | 0.00 | 0.00 | 90 | 1015.3 |
| 20260906124003 | 63 | 104 | 5.0 | 6.0 | 0.00 | 0.00 | 0.00 | 89 | 1015.9 |
| 20260906123457 | 63 | 98 | 5.0 | 6.0 | 0.00 | 0.00 | 0.00 | 90 | 1015.6 |
| 20260906122957 | 63 | 119 | 8.0 | 10.0 | 0.00 | 0.00 | 0.00 | 90 | 1015.3 |
| 20260906122452 | 63 | 127 | 8.0 | 9.0 | 0.00 | 0.00 | 0.00 | 90 | 1015.6 |
| 20260906121948 | 62 | 107 | 2.0 | 5.0 | 0.00 | 0.00 | 0.00 | 90 | 1015.2 |
| 20260906121444 | 63 | 121 | 5.0 | 6.0 | 0.00 | 0.00 | 0.00 | 90 | 1015.0 |
| 20260906120940 | 63 | 105 | 6.0 | 6.0 | 0.00 | 0.00 | 0.00 | 89 | 1015.1 |
| 20260906120435 | 63 | 114 | 2.0 | 3.0 | 0.00 | 0.00 | 0.00 | 89 | 1015.5 |
| 20260906115932 | 63 | 140 | 3.0 | 4.0 | 0.00 | 0.00 | 0.00 | 89 | 1015.4 |
| 20260906115427 | 63 | 36 | 3.0 | 5.0 | 0.00 | 0.00 | 0.00 | 89 | 1015.6 |
| 20260906114926 | 63 | 111 | 2.0 | 4.0 | 0.00 | 0.00 | 0.00 | 89 | 1015.2 |
| 20260906114421 | 63 | 172 | 4.0 | 5.0 | 0.00 | 0.00 | 0.00 | 90 | 1015.1 |
| 20260906113917 | 62 | 218 | 1.0 | 2.0 | 0.00 | 0.00 | 0.00 | 90 | 1015.3 |
| 20260906113415 | 63 | 99 | 2.0 | 3.0 | 0.00 | 0.00 | 0.00 | 90 | 1014.8 |
| 20260906112912 | 63 | 113 | 5.0 | 7.0 | 0.00 | 0.00 | 0.00 | 90 | 1014.8 |
| 20260906112407 | 62 | 99 | 3.0 | 4.0 | 0.00 | 0.00 | 0.00 | 89 | 1015.3 |
| 20260906111902 | 63 | 87 | 4.0 | 5.0 | 0.00 | 0.00 | 0.00 | 89 | 1015.4 |
| 20260906111401 | 63 | 117 | 3.0 | 5.0 | 0.00 | 0.00 | 0.00 | 88 | 1015.2 |
| 20260906110856 | 63 | 117 | 3.0 | 6.0 | 0.00 | 0.00 | 0.00 | 88 | 1014.8 |
| 20260906110352 | 63 | 114 | 8.0 | 9.0 | 0.00 | 0.00 | 0.00 | 87 | 1014.8 |
| 20260906105851 | 63 | 126 | 7.0 | 10.0 | 0.00 | 0.00 | 0.00 | 86 | 1014.7 |
| 20260906105347 | 64 | 122 | 5.0 | 8.0 | 0.00 | 0.00 | 0.00 | 85 | 1014.7 |
| 20260906104843 | 64 | 115 | 6.0 | 10.0 | 0.00 | 0.00 | 0.00 | 84 | 1014.6 |
| 20260906104341 | 64 | 106 | 10.0 | 10.0 | 0.00 | 0.00 | 0.00 | 83 | 1014.5 |
| 20260906103840 | 65 | 105 | 7.0 | 9.0 | 0.00 | 0.00 | 0.00 | 82 | 1014.6 |
| 20260906103338 | 65 | 94 | 6.0 | 9.0 | 0.00 | 0.00 | 0.00 | 81 | 1014.3 |
| 20260906102834 | 65 | 96 | 9.0 | 12.0 | 0.00 | 0.00 | 0.00 | 80 | 1014.2 |
| 20260906102333 | 65 | 120 | 10.0 | 11.0 | 0.00 | 0.00 | 0.00 | 79 | 1014.6 |
| 20260906101828 | 65 | 119 | 7.0 | 10.0 | 0.00 | 0.00 | 0.00 | 79 | 1014.7 |
| 20260906101323 | 65 | 115 | 6.0 | 9.0 | 0.00 | 0.00 | 0.00 | 79 | 1014.3 |
| 20260906100819 | 65 | 100 | 6.0 | 11.0 | 0.00 | 0.00 | 0.00 | 79 | 1014.2 |
| 20260906100318 | 65 | 107 | 6.0 | 7.0 | 0.00 | 0.00 | 0.00 | 79 | 1014.7 |
| 20260906095813 | 65 | 88 | 4.0 | 5.0 | 0.00 | 0.00 | 0.00 | 79 | 1014.3 |
| 20260906095309 | 66 | 103 | 5.0 | 8.0 | 0.00 | 0.00 | 0.00 | 78 | 1014.4 |
| 20260906094808 | 66 | 112 | 6.0 | 10.0 | 0.00 | 0.00 | 0.00 | 77 | 1014.4 |
| 20260906094303 | 66 | 81 | 5.0 | 9.0 | 0.00 | 0.00 | 0.00 | 77 | 1014.2 |
| 20260906093800 | 65 | 97 | 7.0 | 10.0 | 0.00 | 0.00 | 0.00 | 79 | 1013.7 |
| 20260906093255 | 65 | 86 | 7.0 | 9.0 | 0.00 | 0.00 | 0.00 | 81 | 1013.9 |
| 20260906092750 | 65 | 99 | 7.0 | 12.0 | 0.00 | 0.00 | 0.00 | 82 | 1014.2 |
| 20260906092244 | 65 | 108 | 11.0 | 13.0 | 0.00 | 0.00 | 0.00 | 81 | 1014.0 |
| 20260906091740 | 65 | 118 | 9.0 | 13.0 | 0.00 | 0.00 | 0.00 | 82 | 1014.2 |
| 20260906091236 | 65 | 108 | 10.0 | 11.0 | 0.00 | 0.00 | 0.00 | 82 | 1014.0 |
| 20260906090732 | 64 | 126 | 11.0 | 12.0 | 0.00 | 0.00 | 0.00 | 83 | 1014.4 |
| 20260906090231 | 65 | 125 | 9.0 | 11.0 | 0.00 | 0.00 | 0.00 | 82 | 1014.3 |
| 20260906085730 | 64 | 115 | 7.0 | 8.0 | 0.00 | 0.00 | 0.00 | 82 | 1014.2 |
| 20260906085230 | 65 | 102 | 7.0 | 10.0 | 0.00 | 0.00 | 0.00 | 81 | 1013.8 |
| 20260906084724 | 65 | 108 | 7.0 | 11.0 | 0.00 | 0.00 | 0.00 | 81 | 1014.2 |
| 20260906084218 | 66 | 96 | 10.0 | 14.0 | 0.00 | 0.00 | 0.00 | 79 | 1014.0 |
| 20260906083714 | 66 | 93 | 7.0 | 11.0 | 0.00 | 0.00 | 0.00 | 79 | 1013.7 |
| 20260906083209 | 66 | 88 | 12.0 | 13.0 | 0.00 | 0.00 | 0.00 | 78 | 1013.9 |
| 20260906082704 | 66 | 96 | 11.0 | 12.0 | 0.00 | 0.00 | 0.00 | 78 | 1014.0 |
| 20260906082154 | 66 | 102 | 7.0 | 10.0 | 0.00 | 0.00 | 0.00 | 79 | 1013.9 |
| 20260906081649 | 66 | 98 | 8.0 | 14.0 | 0.00 | 0.00 | 0.00 | 78 | 1013.7 |
| 20260906081144 | 66 | 91 | 10.0 | 12.0 | 0.00 | 0.00 | 0.00 | 78 | 1014.0 |
| 20260906080641 | 65 | 108 | 11.0 | 13.0 | 0.00 | 0.00 | 0.00 | 79 | 1014.2 |
| 20260906080137 | 64 | 107 | 11.0 | 14.0 | 0.00 | 0.00 | 0.00 | 82 | 1014.3 |
| 20260906075636 | 64 | 106 | 9.0 | 9.0 | 0.00 | 0.00 | 0.00 | 86 | 1014.4 |
| 20260906075131 | 63 | 104 | 8.0 | 9.0 | 0.00 | 0.00 | 0.00 | 88 | 1014.4 |
| 20260906074626 | 63 | 104 | 7.0 | 8.0 | 0.00 | 0.00 | 0.00 | 89 | 1014.4 |
| 20260906074125 | 63 | 110 | 7.0 | 9.0 | 0.00 | 0.00 | 0.00 | 89 | 1014.3 |
| 20260906073620 | 63 | 104 | 8.0 | 11.0 | 0.00 | 0.00 | 0.00 | 89 | 1014.2 |
| 20260906073116 | 63 | 108 | 7.0 | 10.0 | 0.00 | 0.00 | 0.00 | 89 | 1014.4 |
| 20260906072610 | 63 | 95 | 8.0 | 10.0 | 0.00 | 0.00 | 0.00 | 88 | 1014.6 |
| 20260906072106 | 63 | 91 | 9.0 | 12.0 | 0.00 | 0.00 | 0.00 | 88 | 1014.4 |
| 20260906071603 | 63 | 85 | 12.0 | 14.0 | 0.00 | 0.00 | 0.00 | 86 | 1014.5 |
| 20260906071057 | 63 | 83 | 7.0 | 12.0 | 0.00 | 0.00 | 0.00 | 87 | 1014.2 |
| 20260906070554 | 63 | 88 | 10.0 | 14.0 | 0.00 | 0.00 | 0.00 | 87 | 1014.6 |
| 20260906070049 | 63 | 102 | 12.0 | 14.0 | 0.00 | 0.00 | 0.00 | 87 | 1014.7 |
| 20260906065548 | 63 | 106 | 12.0 | 15.0 | 0.00 | 0.00 | 0.00 | 87 | 1015.0 |
| 20260906065044 | 63 | 84 | 11.0 | 20.0 | 0.00 | 0.00 | 0.00 | 86 | 1014.8 |
| 20260906064540 | 64 | 84 | 15.0 | 20.0 | 0.00 | 0.00 | 0.00 | 84 | 1014.5 |
| 20260906064035 | 64 | 68 | 13.0 | 22.0 | 0.00 | 0.00 | 0.00 | 85 | 1014.5 |
| 20260906063530 | 64 | 94 | 13.0 | 22.0 | 0.00 | 0.00 | 0.00 | 85 | 1014.7 |
| 20260906063026 | 64 | 87 | 12.0 | 17.0 | 0.00 | 0.00 | 0.00 | 88 | 1015.3 |
| 20260906062521 | 64 | 104 | 12.0 | 17.0 | 0.00 | 0.00 | 0.00 | 90 | 1015.6 |
| 20260906062015 | 64 | 99 | 15.0 | 21.0 | 0.00 | 0.00 | 0.00 | 91 | 1015.9 |
| 20260906061511 | 64 | 95 | 11.0 | 19.0 | 0.00 | 0.00 | 0.00 | 91 | 1015.7 |
| 20260906061005 | 64 | 108 | 14.0 | 20.0 | 0.00 | 0.00 | 0.00 | 91 | 1015.5 |
| 20260906060502 | 64 | 105 | 16.0 | 20.0 | 0.02 | 0.00 | 0.00 | 91 | 1016.0 |
| 20260906055958 | 64 | 101 | 19.0 | 20.0 | 0.05 | 0.34 | 0.34 | 92 | 1015.6 |
| 20260906055454 | 64 | 87 | 16.0 | 22.0 | 0.02 | 0.33 | 0.33 | 92 | 1016.0 |
| 20260906054949 | 64 | 98 | 15.0 | 24.0 | 0.00 | 0.33 | 0.33 | 91 | 1016.9 |
| 20260906054449 | 64 | 86 | 14.0 | 21.0 | 0.00 | 0.33 | 0.33 | 91 | 1016.3 |
| 20260906053944 | 63 | 99 | 15.0 | 17.0 | 0.02 | 0.33 | 0.33 | 91 | 1016.1 |
| 20260906053441 | 64 | 119 | 14.0 | 21.0 | 0.02 | 0.33 | 0.33 | 89 | 1016.4 |
| 20260906052936 | 64 | 111 | 20.0 | 24.0 | 0.00 | 0.32 | 0.32 | 88 | 1016.3 |
| 20260906052432 | 64 | 114 | 15.0 | 22.0 | 0.00 | 0.32 | 0.32 | 86 | 1016.6 |
| 20260906051929 | 64 | 98 | 17.0 | 20.0 | 0.00 | 0.32 | 0.32 | 90 | 1015.7 |
| 20260906051424 | 63 | 116 | 14.0 | 26.0 | 0.00 | 0.32 | 0.32 | 94 | 1015.9 |
| 20260906050919 | 63 | 105 | 13.0 | 17.0 | 0.00 | 0.32 | 0.32 | 97 | 1015.7 |
| 20260906050414 | 64 | 106 | 20.0 | 24.0 | 0.00 | 0.32 | 0.32 | 98 | 1015.3 |
| 20260906045913 | 65 | 121 | 19.0 | 20.0 | 0.00 | 0.32 | 0.32 | 98 | 1015.4 |
| 20260906045412 | 65 | 118 | 18.0 | 25.0 | 0.00 | 0.32 | 0.32 | 98 | 1015.3 |
| 20260906044908 | 64 | 124 | 19.0 | 25.0 | 0.00 | 0.32 | 0.32 | 98 | 1015.3 |
| 20260906044403 | 63 | 127 | 17.0 | 24.0 | 0.00 | 0.32 | 0.32 | 98 | 1014.5 |
| 20260906043859 | 64 | 101 | 13.0 | 18.0 | 0.02 | 0.32 | 0.32 | 98 | 1014.2 |
| 20260906043354 | 64 | 106 | 12.0 | 19.0 | 0.05 | 0.32 | 0.32 | 98 | 1014.6 |
| 20260906042849 | 63 | 126 | 11.0 | 19.0 | 0.02 | 0.32 | 0.32 | 98 | 1015.0 |
| 20260906042348 | 65 | 110 | 10.0 | 11.0 | 0.02 | 0.31 | 0.31 | 98 | 1015.5 |
| 20260906041844 | 65 | 70 | 8.0 | 12.0 | 0.09 | 0.31 | 0.31 | 98 | 1016.1 |
| 20260906041340 | 64 | 18 | 9.0 | 10.0 | 0.26 | 0.30 | 0.30 | 98 | 1015.9 |
| 20260906040839 | 65 | 4 | 7.0 | 10.0 | 0.50 | 0.29 | 0.29 | 98 | 1016.1 |
| 20260906040335 | 65 | 314 | 4.0 | 7.0 | 0.61 | 0.26 | 0.26 | 98 | 1017.0 |
| 20260906035830 | 65 | 206 | 7.0 | 10.0 | 0.52 | 0.20 | 0.20 | 97 | 1017.1 |
| 20260906035325 | 65 | 209 | 10.0 | 22.0 | 0.45 | 0.14 | 0.14 | 97 | 1017.2 |
| 20260906034821 | 65 | 229 | 15.0 | 21.0 | 0.33 | 0.10 | 0.10 | 97 | 1016.9 |
| 20260906034315 | 65 | 238 | 24.0 | 28.0 | 0.28 | 0.06 | 0.06 | 96 | 1016.9 |
| 20260906033811 | 65 | 255 | 11.0 | 23.0 | 0.19 | 0.04 | 0.04 | 95 | 1016.8 |
| 20260906033310 | 67 | 226 | 17.0 | 30.0 | 0.05 | 0.01 | 0.01 | 89 | 1016.1 |
| 20260906032807 | 69 | 257 | 19.0 | 22.0 | 0.00 | 0.00 | 0.00 | 73 | 1015.4 |
| 20260906032305 | 72 | 245 | 8.0 | 12.0 | 0.00 | 0.00 | 0.00 | 68 | 1015.2 |
| 20260906031757 | 72 | 30 | 10.0 | 16.0 | 0.00 | 0.00 | 0.00 | 68 | 1014.3 |
| 20260906031253 | 71 | 19 | 14.0 | 18.0 | 0.00 | 0.00 | 0.00 | 69 | 1013.9 |
| 20260906030752 | 70 | 32 | 17.0 | 23.0 | 0.00 | 0.00 | 0.00 | 73 | 1013.5 |
| 20260906030248 | 69 | 29 | 14.0 | 21.0 | 0.00 | 0.00 | 0.00 | 77 | 1013.6 |
| 20260906025747 | 69 | 18 | 18.0 | 23.0 | 0.00 | 0.00 | 0.00 | 76 | 1013.9 |
| 20260906025241 | 71 | 4 | 16.0 | 23.0 | 0.00 | 0.00 | 0.00 | 68 | 1014.3 |
| 20260906024741 | 71 | 3 | 16.0 | 24.0 | 0.00 | 0.00 | 0.00 | 65 | 1013.6 |
| 20260906024239 | 71 | 0 | 12.0 | 21.0 | 0.00 | 0.00 | 0.00 | 67 | 1013.7 |
| 20260906023735 | 71 | 0 | 12.0 | 19.0 | 0.00 | 0.00 | 0.00 | 69 | 1013.6 |
| 20260906023231 | 70 | 7 | 9.0 | 18.0 | 0.00 | 0.00 | 0.00 | 76 | 1013.5 |
| 20260906022726 | 69 | 0 | 12.0 | 21.0 | 0.00 | 0.00 | 0.00 | 78 | 1013.4 |
| 20260906022221 | 69 | 357 | 22.0 | 27.0 | 0.00 | 0.00 | 0.00 | 80 | 1013.5 |
| 20260906021717 | 69 | 0 | 18.0 | 26.0 | 0.00 | 0.00 | 0.00 | 78 | 1013.3 |
| 20260906021215 | 73 | 6 | 13.0 | 17.0 | 0.00 | 0.00 | 0.00 | 67 | 1013.1 |
| 20260906020705 | 76 | 5 | 6.0 | 12.0 | 0.00 | 0.00 | 0.00 | 55 | 1013.1 |
| 20260906020200 | 80 | 36 | 5.0 | 9.0 | 0.00 | 0.00 | 0.00 | 49 | 1012.9 |
| 20260906015654 | 81 | 115 | 8.0 | 15.0 | 0.00 | 0.00 | 0.00 | 49 | 1012.7 |
| 20260906015153 | 81 | 101 | 9.0 | 11.0 | 0.00 | 0.00 | 0.00 | 47 | 1012.4 |
| 20260906014653 | 81 | 109 | 12.0 | 23.0 | 0.00 | 0.00 | 0.00 | 47 | 1012.2 |
| 20260906014149 | 79 | 59 | 15.0 | 21.0 | 0.00 | 0.00 | 0.00 | 49 | 1012.0 |
| 20260906013645 | 74 | 41 | 11.0 | 14.0 | 0.00 | 0.00 | 0.00 | 61 | 1012.2 |
| 20260906013140 | 77 | 35 | 14.0 | 22.0 | 0.00 | 0.00 | 0.00 | 55 | 1012.4 |
| 20260906012639 | 78 | 20 | 7.0 | 7.0 | 0.00 | 0.00 | 0.00 | 46 | 1012.0 |
| 20260906012134 | 78 | 116 | 5.0 | 8.0 | 0.00 | 0.00 | 0.00 | 45 | 1011.6 |
| 20260906011630 | 78 | 120 | 6.0 | 11.0 | 0.00 | 0.00 | 0.00 | 46 | 1010.9 |
| 20260906011124 | 78 | 133 | 10.0 | 19.0 | 0.00 | 0.00 | 0.00 | 46 | 1010.9 |
| 20260906010620 | 79 | 133 | 17.0 | 20.0 | 0.00 | 0.00 | 0.00 | 46 | 1010.8 |
| 20260906010116 | 78 | 137 | 18.0 | 21.0 | 0.00 | 0.00 | 0.00 | 47 | 1010.7 |
| 20260906005616 | 78 | 146 | 17.0 | 24.0 | 0.00 | 0.00 | 0.00 | 46 | 1010.5 |
| 20260906005115 | 79 | 145 | 16.0 | 22.0 | 0.00 | 0.00 | 0.00 | 46 | 1010.8 |
| 20260906004614 | 79 | 147 | 11.0 | 26.0 | 0.00 | 0.00 | 0.00 | 45 | 1010.7 |
| 20260906004109 | 79 | 140 | 14.0 | 26.0 | 0.00 | 0.00 | 0.00 | 46 | 1010.4 |
| 20260906003604 | 78 | 161 | 18.0 | 22.0 | 0.00 | 0.00 | 0.00 | 47 | 1010.9 |
| 20260906003100 | 77 | 152 | 14.0 | 21.0 | 0.00 | 0.00 | 0.00 | 47 | 1011.0 |
| 20260906002555 | 77 | 147 | 21.0 | 26.0 | 0.00 | 0.00 | 0.00 | 47 | 1011.7 |
| 20260906002050 | 76 | 139 | 19.0 | 24.0 | 0.00 | 0.00 | 0.00 | 49 | 1011.6 |
| 20260906001545 | 77 | 150 | 19.0 | 39.0 | 0.00 | 0.00 | 0.00 | 49 | 1011.9 |
| 20260906001044 | 79 | 160 | 11.0 | 22.0 | 0.00 | 0.00 | 0.00 | 48 | 1011.4 |
| 20260906000541 | 79 | 152 | 18.0 | 26.0 | 0.00 | 0.00 | 0.00 | 48 | 1011.2 |
| 20260906000036 | 80 | 145 | 23.0 | 37.0 | 0.00 | 0.00 | 0.00 | 50 | 1011.6 |
| 20260905235530 | 85 | 142 | 21.0 | 24.0 | 0.00 | 0.00 | 0.00 | 47 | 1011.1 |
| 20260905235025 | 84 | 155 | 25.0 | 27.0 | 0.00 | 0.00 | 0.00 | 48 | 1010.7 |
| 20260905234520 | 86 | 143 | 18.0 | 32.0 | 0.00 | 0.00 | 0.00 | 49 | 1010.4 |
| 20260905234015 | 92 | 117 | 12.0 | 20.0 | 0.00 | 0.00 | 0.00 | 37 | 1009.9 |
| 20260905233510 | 92 | 135 | 14.0 | 24.0 | 0.00 | 0.00 | 0.00 | 37 | 1009.4 |
| 20260905233009 | 92 | 131 | 11.0 | 21.0 | 0.00 | 0.00 | 0.00 | 38 | 1009.4 |
| 20260905232505 | 92 | 138 | 18.0 | 19.0 | 0.00 | 0.00 | 0.00 | 38 | 1009.4 |
| 20260905232001 | 93 | 128 | 12.0 | 18.0 | 0.00 | 0.00 | 0.00 | 38 | 1009.5 |
| 20260905231455 | 93 | 124 | 7.0 | 16.0 | 0.00 | 0.00 | 0.00 | 39 | 1009.5 |
| 20260905230952 | 92 | 130 | 13.0 | 19.0 | 0.00 | 0.00 | 0.00 | 39 | 1009.3 |
| 20260905230450 | 93 | 138 | 13.0 | 19.0 | 0.00 | 0.00 | 0.00 | 37 | 1009.6 |
| 20260905225948 | 93 | 146 | 12.0 | 18.0 | 0.00 | 0.00 | 0.00 | 36 | 1010.0 |
| 20260905225444 | 94 | 137 | 11.0 | 18.0 | 0.00 | 0.00 | 0.00 | 36 | 1009.6 |
| 20260905224938 | 94 | 142 | 15.0 | 21.0 | 0.00 | 0.00 | 0.00 | 35 | 1009.4 |
| 20260905224435 | 94 | 142 | 12.0 | 19.0 | 0.00 | 0.00 | 0.00 | 36 | 1009.5 |
| 20260905223933 | 93 | 143 | 18.0 | 24.0 | 0.00 | 0.00 | 0.00 | 36 | 1009.5 |
| 20260905223432 | 95 | 140 | 12.0 | 21.0 | 0.00 | 0.00 | 0.00 | 34 | 1009.4 |
| 20260905222927 | 95 | 158 | 9.0 | 17.0 | 0.00 | 0.00 | 0.00 | 33 | 1009.3 |
| 20260905222426 | 95 | 155 | 6.0 | 14.0 | 0.00 | 0.00 | 0.00 | 33 | 1009.7 |
| 20260905221922 | 95 | 160 | 7.0 | 17.0 | 0.00 | 0.00 | 0.00 | 34 | 1009.4 |
| 20260905221419 | 96 | 146 | 13.0 | 17.0 | 0.00 | 0.00 | 0.00 | 34 | 1009.5 |
| 20260905220915 | 96 | 187 | 10.0 | 14.0 | 0.00 | 0.00 | 0.00 | 32 | 1009.5 |
| 20260905220410 | 95 | 153 | 10.0 | 14.0 | 0.00 | 0.00 | 0.00 | 34 | 1009.6 |
| 20260905215909 | 96 | 171 | 12.0 | 15.0 | 0.00 | 0.00 | 0.00 | 33 | 1009.7 |
| 20260905215405 | 96 | 162 | 13.0 | 18.0 | 0.00 | 0.00 | 0.00 | 34 | 1009.7 |
| 20260905214901 | 95 | 154 | 7.0 | 17.0 | 0.00 | 0.00 | 0.00 | 35 | 1009.6 |
| 20260905214356 | 95 | 192 | 7.0 | 9.0 | 0.00 | 0.00 | 0.00 | 33 | 1009.7 |
| 20260905213851 | 95 | 128 | 12.0 | 14.0 | 0.00 | 0.00 | 0.00 | 33 | 1010.0 |
| 20260905213348 | 95 | 155 | 11.0 | 19.0 | 0.00 | 0.00 | 0.00 | 34 | 1009.9 |
| 20260905212847 | 95 | 161 | 9.0 | 17.0 | 0.00 | 0.00 | 0.00 | 34 | 1010.5 |
| 20260905212342 | 95 | 139 | 12.0 | 21.0 | 0.00 | 0.00 | 0.00 | 34 | 1010.3 |
| 20260905211842 | 95 | 147 | 10.0 | 20.0 | 0.00 | 0.00 | 0.00 | 34 | 1010.5 |
| 20260905211338 | 95 | 133 | 21.0 | 24.0 | 0.00 | 0.00 | 0.00 | 34 | 1010.3 |
| 20260905210834 | 95 | 155 | 6.0 | 20.0 | 0.00 | 0.00 | 0.00 | 35 | 1010.3 |
| 20260905210334 | 96 | 124 | 11.0 | 21.0 | 0.00 | 0.00 | 0.00 | 33 | 1010.2 |
| 20260905205832 | 95 | 143 | 9.0 | 13.0 | 0.00 | 0.00 | 0.00 | 35 | 1010.5 |